createdAt,value
2023-01-22T00:02:06.674Z,8.38
2023-01-22T00:04:33.456Z,9.73
2023-01-22T00:07:00.155Z,8.65
2023-01-22T00:09:26.807Z,8.45
2023-01-22T00:11:53.518Z,9.23
2023-01-22T00:14:20.185Z,8.75
2023-01-22T00:16:47.405Z,9.70
2023-01-22T00:19:14.415Z,10.38
2023-01-22T00:21:41.073Z,8.48
2023-01-22T00:24:08.074Z,9.45
2023-01-22T00:26:36.663Z,8.43
2023-01-22T00:29:03.997Z,8.55
2023-01-22T00:31:30.800Z,8.15
2023-01-22T00:33:57.526Z,7.10
2023-01-22T00:36:24.488Z,9.80
2023-01-22T00:38:51.675Z,10.00
2023-01-22T00:41:19.842Z,7.97
2023-01-22T00:43:47.138Z,8.95
2023-01-22T00:46:17.054Z,9.18
2023-01-22T00:48:49.482Z,8.82
2023-01-22T00:53:44.303Z,9.25
2023-01-22T00:56:12.907Z,8.43
2023-01-22T00:58:39.869Z,8.95
2023-01-22T01:01:07.499Z,10.90
2023-01-22T01:03:35.335Z,10.20
2023-01-22T01:06:14.395Z,9.57
2023-01-22T01:08:42.581Z,9.38
2023-01-22T01:11:13.364Z,7.97
2023-01-22T01:13:43.275Z,9.00
2023-01-22T01:16:16.391Z,10.20
2023-01-22T01:18:45.944Z,9.02
2023-01-22T01:21:13.176Z,9.52
2023-01-22T01:23:42.762Z,8.95
2023-01-22T01:26:15.584Z,10.80
2023-01-22T01:28:43.332Z,7.60
2023-01-22T01:31:14.084Z,10.82
2023-01-22T01:33:41.671Z,10.68
2023-01-22T01:36:47.777Z,9.73
2023-01-22T01:39:15.623Z,9.88
2023-01-22T01:41:42.398Z,10.55
2023-01-22T01:44:12.087Z,10.35
2023-01-22T01:46:46.747Z,10.50
2023-01-22T01:49:29.815Z,11.15
2023-01-22T01:52:00.157Z,12.85
2023-01-22T01:54:28.769Z,11.82
2023-01-22T01:57:02.097Z,11.75
2023-01-22T01:59:28.898Z,14.13
2023-01-22T02:01:55.916Z,11.48
2023-01-22T02:04:24.013Z,15.02
2023-01-22T02:06:50.753Z,15.07
2023-01-22T02:09:17.549Z,14.35
2023-01-22T02:11:44.766Z,10.85
2023-01-22T02:14:18.521Z,12.70
2023-01-22T02:16:45.283Z,12.60
2023-01-22T02:19:12.191Z,13.43
2023-01-22T02:21:44.411Z,9.50
2023-01-22T02:24:15.005Z,15.80
2023-01-22T02:26:43.441Z,17.38
2023-01-22T02:29:13.573Z,14.98
2023-01-22T02:31:42.488Z,15.18
2023-01-22T02:34:10.103Z,16.58
2023-01-22T02:36:39.004Z,17.55
2023-01-22T02:39:06.705Z,16.10
2023-01-22T02:41:33.845Z,19.83
2023-01-22T02:44:00.645Z,18.67
2023-01-22T02:46:27.467Z,15.85
2023-01-22T02:48:54.215Z,15.50
2023-01-22T02:51:21.546Z,16.80
2023-01-22T02:53:49.673Z,15.23
2023-01-22T02:56:16.836Z,16.17
2023-01-22T02:58:43.499Z,16.98
2023-01-22T03:01:21.075Z,14.75
2023-01-22T03:03:51.226Z,16.67
2023-01-22T03:06:21.699Z,15.13
2023-01-22T03:08:54.621Z,16.77
2023-01-22T03:11:22.604Z,14.77
2023-01-22T03:14:08.062Z,12.45
2023-01-22T03:16:53.954Z,15.63
2023-01-22T03:19:39.148Z,16.70
2023-01-22T03:22:12.236Z,15.05
2023-01-22T03:24:38.973Z,15.15
2023-01-22T03:27:05.817Z,14.18
2023-01-22T03:29:33.523Z,14.70
2023-01-22T03:32:01.216Z,15.80
2023-01-22T03:34:28.151Z,13.70
2023-01-22T03:36:56.737Z,15.65
2023-01-22T03:39:23.685Z,14.38
2023-01-22T03:41:51.057Z,12.55
2023-01-22T03:44:17.773Z,16.30
2023-01-22T03:46:45.093Z,15.05
2023-01-22T03:49:14.396Z,13.40
2023-01-22T03:51:43.663Z,14.50
2023-01-22T03:54:15.502Z,14.60
2023-01-22T03:56:42.933Z,15.75
2023-01-22T03:59:19.835Z,12.60
2023-01-22T04:01:46.713Z,16.63
2023-01-22T04:04:13.602Z,15.43
2023-01-22T04:06:42.708Z,14.13
2023-01-22T04:09:09.618Z,15.40
2023-01-22T04:11:46.223Z,14.27
2023-01-22T04:14:14.617Z,16.35
2023-01-22T04:16:48.597Z,12.70
2023-01-22T04:19:29.588Z,16.35
2023-01-22T04:22:16.510Z,14.10
2023-01-22T04:24:44.770Z,17.35
2023-01-22T04:27:11.550Z,17.45
2023-01-22T04:29:38.187Z,15.82
2023-01-22T04:32:07.352Z,16.33
2023-01-22T04:34:54.815Z,18.05
2023-01-22T04:37:33.866Z,15.25
2023-01-22T04:40:01.488Z,12.45
2023-01-22T04:42:28.381Z,17.92
2023-01-22T04:44:55.102Z,15.77
2023-01-22T04:47:21.846Z,13.38
2023-01-22T04:49:48.503Z,15.85
2023-01-22T04:52:17.261Z,13.68
2023-01-22T04:54:44.096Z,13.90
2023-01-22T04:57:11.843Z,14.13
2023-01-22T04:59:38.720Z,13.98
2023-01-22T05:02:06.168Z,15.60
2023-01-22T05:04:32.932Z,14.57
2023-01-22T05:06:59.641Z,15.63
2023-01-22T05:09:26.666Z,12.60
2023-01-22T05:11:57.479Z,14.85
2023-01-22T05:14:25.248Z,14.82
2023-01-22T05:16:51.892Z,15.05
2023-01-22T05:19:18.827Z,14.10
2023-01-22T05:21:45.449Z,14.48
2023-01-22T05:24:16.356Z,12.40
2023-01-22T05:26:42.990Z,12.93
2023-01-22T05:29:14.243Z,14.40
2023-01-22T05:31:59.591Z,16.95
2023-01-22T05:34:41.883Z,15.35
2023-01-22T05:37:10.019Z,14.63
2023-01-22T05:39:36.692Z,15.63
2023-01-22T05:42:05.828Z,15.15
2023-01-22T05:44:33.631Z,15.07
2023-01-22T05:47:01.347Z,13.60
2023-01-22T05:49:46.656Z,11.88
2023-01-22T05:52:15.248Z,14.82
2023-01-22T05:54:41.880Z,14.95
2023-01-22T05:57:08.629Z,15.95
2023-01-22T05:59:37.966Z,15.30
2023-01-22T06:02:06.424Z,14.65
2023-01-22T06:04:37.149Z,16.00
2023-01-22T06:07:12.051Z,13.40
2023-01-22T06:09:38.679Z,16.65
2023-01-22T06:12:05.684Z,15.15
2023-01-22T06:14:32.334Z,16.90
2023-01-22T06:17:01.795Z,19.85
2023-01-22T06:19:34.842Z,18.15
2023-01-22T06:22:01.786Z,18.17
2023-01-22T06:24:39.146Z,18.77
2023-01-22T06:27:07.729Z,17.90
2023-01-22T06:32:08.269Z,16.58
2023-01-22T06:34:34.982Z,19.75
2023-01-22T06:37:04.130Z,18.77
2023-01-22T06:39:33.367Z,19.73
2023-01-22T06:42:06.615Z,15.77
2023-01-22T06:44:34.042Z,19.25
2023-01-22T06:47:00.815Z,18.40
2023-01-22T06:49:29.797Z,17.98
2023-01-22T06:51:56.480Z,22.25
2023-01-22T06:54:23.352Z,18.45
2023-01-22T06:56:50.028Z,18.75
2023-01-22T06:59:18.189Z,18.98
2023-01-22T07:01:44.875Z,23.33
2023-01-22T07:04:11.485Z,21.80
2023-01-22T07:06:38.095Z,24.33
2023-01-22T07:09:04.771Z,20.45
2023-01-22T07:11:31.418Z,24.27
2023-01-22T07:13:58.041Z,22.33
2023-01-22T07:16:24.754Z,22.45
2023-01-22T07:18:51.448Z,27.17
2023-01-22T07:21:18.127Z,27.65
2023-01-22T07:23:44.759Z,28.10
2023-01-22T07:26:11.436Z,23.85
2023-01-22T07:28:38.080Z,29.92
2023-01-22T07:31:09.689Z,24.92
2023-01-22T07:33:36.355Z,23.75
2023-01-22T07:36:03.165Z,23.23
2023-01-22T07:38:30.257Z,25.73
2023-01-22T07:41:01.703Z,24.85
2023-01-22T07:43:28.463Z,26.25
2023-01-22T07:45:55.216Z,26.50
2023-01-22T07:48:21.811Z,31.17
2023-01-22T07:50:48.478Z,24.27
2023-01-22T07:53:15.135Z,26.52
2023-01-22T07:55:41.814Z,25.63
2023-01-22T07:58:08.803Z,25.55
2023-01-22T08:00:36.171Z,20.42
2023-01-22T08:03:07.314Z,25.20
2023-01-22T08:05:33.970Z,25.65
2023-01-22T08:08:00.615Z,23.65
2023-01-22T08:10:27.327Z,27.88
2023-01-22T08:12:53.968Z,23.80
2023-01-22T08:15:21.211Z,28.83
2023-01-22T08:17:51.605Z,23.45
2023-01-22T08:20:18.880Z,24.05
2023-01-22T08:22:45.782Z,26.08
2023-01-22T08:25:12.736Z,21.80
2023-01-22T08:27:39.539Z,23.70
2023-01-22T08:30:07.830Z,28.70
2023-01-22T08:32:34.745Z,22.95
2023-01-22T08:35:01.385Z,23.50
2023-01-22T08:37:28.079Z,24.02
2023-01-22T08:39:54.831Z,22.90
2023-01-22T08:42:21.599Z,23.08
2023-01-22T08:44:48.226Z,25.75
2023-01-22T08:47:15.193Z,19.42
2023-01-22T08:49:41.894Z,25.90
2023-01-22T08:52:08.713Z,20.70
2023-01-22T08:54:35.323Z,19.65
2023-01-22T08:57:02.067Z,21.90
2023-01-22T08:59:30.871Z,18.95
2023-01-22T09:01:59.841Z,21.70
2023-01-22T09:04:26.604Z,25.08
2023-01-22T09:06:53.340Z,20.55
2023-01-22T09:09:20.097Z,20.83
2023-01-22T09:11:46.964Z,23.10
2023-01-22T09:14:14.028Z,20.63
2023-01-22T09:16:40.979Z,22.25
2023-01-22T09:19:07.842Z,23.15
2023-01-22T09:21:37.300Z,20.23
2023-01-22T09:24:04.964Z,16.48
2023-01-22T09:26:34.380Z,17.05
2023-01-22T09:29:04.141Z,15.00
2023-01-22T09:31:30.809Z,14.20
2023-01-22T09:33:57.493Z,13.60
2023-01-22T09:36:24.106Z,13.35
2023-01-22T09:38:50.749Z,13.90
2023-01-22T09:41:30.583Z,13.93
2023-01-22T09:44:06.233Z,12.00
2023-01-22T09:46:47.182Z,15.65
2023-01-22T09:49:19.818Z,14.73
2023-01-22T09:52:06.859Z,14.15
2023-01-22T09:54:33.921Z,13.05
2023-01-22T09:57:04.166Z,15.57
2023-01-22T09:59:43.460Z,10.02
2023-01-22T10:02:44.223Z,11.70
2023-01-22T10:05:39.938Z,9.82
2023-01-22T10:08:13.500Z,10.95
2023-01-22T10:10:40.181Z,9.07
2023-01-22T10:13:16.526Z,9.80
2023-01-22T10:15:43.469Z,8.70
2023-01-22T10:18:42.151Z,11.57
2023-01-22T10:21:21.579Z,8.55
2023-01-22T10:23:50.198Z,9.30
2023-01-22T10:26:25.271Z,9.45
2023-01-22T10:28:55.634Z,9.90
2023-01-22T10:31:29.606Z,11.00
2023-01-22T10:34:02.138Z,9.52
2023-01-22T10:39:14.485Z,8.38
2023-01-22T10:41:42.218Z,11.60
2023-01-22T10:44:17.445Z,9.50
2023-01-22T10:46:46.420Z,9.52
2023-01-22T10:49:23.894Z,11.40
2023-01-22T10:51:56.997Z,12.00
2023-01-22T10:54:30.923Z,10.45
2023-01-22T10:57:04.772Z,8.88
2023-01-22T10:59:31.984Z,8.77
2023-01-22T11:02:10.565Z,10.95
2023-01-22T11:04:38.259Z,9.25
2023-01-22T11:07:07.851Z,8.70
2023-01-22T11:09:52.908Z,8.52
2023-01-22T11:12:26.114Z,9.57
2023-01-22T11:15:00.478Z,9.40
2023-01-22T11:17:37.878Z,8.65
2023-01-22T11:20:16.698Z,9.43
2023-01-22T11:22:46.709Z,8.10
2023-01-22T11:25:13.395Z,7.93
2023-01-22T11:28:05.674Z,9.05
2023-01-22T11:30:46.249Z,9.43
2023-01-22T11:33:26.756Z,8.38
2023-01-22T11:36:34.551Z,8.75
2023-01-22T11:39:13.864Z,8.23
2023-01-22T11:41:55.476Z,7.32
2023-01-22T11:44:40.424Z,8.73
2023-01-22T11:47:16.997Z,10.00
2023-01-22T11:50:02.300Z,11.95
2023-01-22T11:52:45.902Z,8.60
2023-01-22T11:55:31.539Z,8.98
2023-01-22T11:58:51.940Z,8.60
2023-01-22T12:01:25.545Z,8.57
2023-01-22T12:04:04.333Z,7.93
2023-01-22T12:06:52.199Z,10.43
2023-01-22T12:09:30.206Z,10.13
2023-01-22T12:12:11.645Z,10.93
2023-01-22T12:14:47.360Z,12.20
2023-01-22T12:17:28.961Z,8.98
2023-01-22T12:20:19.606Z,9.18
2023-01-22T12:22:59.517Z,8.50
2023-01-22T12:25:38.633Z,9.88
2023-01-22T12:28:14.927Z,10.50
2023-01-22T12:31:02.856Z,8.98
2023-01-22T12:33:34.394Z,9.68
2023-01-22T12:36:03.952Z,8.50
2023-01-22T12:38:42.369Z,7.13
2023-01-22T12:41:27.055Z,8.88
2023-01-22T12:44:03.704Z,9.43
2023-01-22T12:46:48.704Z,8.13
2023-01-22T12:49:16.800Z,10.63
2023-01-22T12:51:52.498Z,10.15
2023-01-22T12:54:32.907Z,10.63
2023-01-22T12:57:14.928Z,7.97
2023-01-22T12:59:51.712Z,9.85
2023-01-22T13:02:44.730Z,9.70
2023-01-22T13:05:11.295Z,8.40
2023-01-22T13:07:41.028Z,10.63
2023-01-22T13:10:19.742Z,10.70
2023-01-22T13:12:56.705Z,8.48
2023-01-22T13:15:27.145Z,8.32
2023-01-22T13:18:08.340Z,11.38
2023-01-22T13:20:46.873Z,9.98
2023-01-22T13:23:14.889Z,10.38
2023-01-22T13:25:42.950Z,12.10
2023-01-22T13:28:19.312Z,10.85
2023-01-22T13:30:59.428Z,11.85
2023-01-22T13:33:26.537Z,9.65
2023-01-22T13:35:53.582Z,11.65
2023-01-22T13:38:29.478Z,10.23
2023-01-22T13:40:59.149Z,11.88
2023-01-22T13:43:26.994Z,11.38
2023-01-22T13:45:56.060Z,10.10
2023-01-22T13:48:25.206Z,10.48
2023-01-22T13:50:58.036Z,8.95
2023-01-22T13:53:30.207Z,10.25
2023-01-22T13:55:57.750Z,10.07
2023-01-22T13:58:47.145Z,10.18
2023-01-22T14:01:28.325Z,10.40
2023-01-22T14:04:05.350Z,9.55
2023-01-22T14:06:43.875Z,10.07
2023-01-22T14:09:10.659Z,9.65
2023-01-22T14:11:39.157Z,10.38
2023-01-22T14:14:19.550Z,12.02
2023-01-22T14:16:46.809Z,9.68
2023-01-22T14:19:13.936Z,12.73
2023-01-22T14:21:40.883Z,11.43
2023-01-22T14:24:08.095Z,11.05
2023-01-22T14:26:34.931Z,10.55
2023-01-22T14:29:01.601Z,11.82
2023-01-22T14:31:28.429Z,10.68
2023-01-22T14:33:55.048Z,10.32
2023-01-22T14:36:21.667Z,9.25
2023-01-22T14:38:49.593Z,11.85
2023-01-22T14:41:16.327Z,12.00
2023-01-22T14:43:42.929Z,9.63
2023-01-22T14:46:09.614Z,10.23
2023-01-22T14:48:36.370Z,11.13
2023-01-22T14:51:09.090Z,9.80
2023-01-22T14:53:35.825Z,10.50
2023-01-22T14:56:02.620Z,9.63
2023-01-22T14:58:29.386Z,11.05
2023-01-22T15:00:56.119Z,9.75
2023-01-22T15:03:22.768Z,10.60
2023-01-22T15:05:52.586Z,10.82
2023-01-22T15:08:19.173Z,10.60
2023-01-22T15:10:46.238Z,12.73
2023-01-22T15:13:12.914Z,10.40
2023-01-22T15:15:39.586Z,11.65
2023-01-22T15:18:06.296Z,11.07
2023-01-22T15:20:32.944Z,10.68
2023-01-22T15:22:59.688Z,9.32
2023-01-22T15:25:28.420Z,12.93
2023-01-22T15:27:55.141Z,9.45
2023-01-22T15:30:21.952Z,9.85
2023-01-22T15:32:48.753Z,13.70
2023-01-22T15:35:15.524Z,11.45
2023-01-22T15:37:42.448Z,10.10
2023-01-22T15:40:10.260Z,12.23
2023-01-22T15:42:37.147Z,11.00
2023-01-22T15:45:05.435Z,9.38
2023-01-22T15:47:32.179Z,9.13
2023-01-22T15:49:58.980Z,9.65
2023-01-22T15:52:25.684Z,8.70
2023-01-22T15:54:53.928Z,9.52
2023-01-22T15:57:20.895Z,10.35
2023-01-22T15:59:47.591Z,12.63
2023-01-22T16:02:17.067Z,13.77
2023-01-22T16:04:43.699Z,12.38
2023-01-22T16:07:10.388Z,10.27
2023-01-22T16:09:37.178Z,11.27
2023-01-22T16:12:04.319Z,12.02
2023-01-22T16:14:31.847Z,10.38
2023-01-22T16:16:58.558Z,11.35
2023-01-22T16:19:25.252Z,10.43
2023-01-22T16:21:53.731Z,12.27
2023-01-22T16:24:20.434Z,12.02
2023-01-22T16:26:47.077Z,12.27
2023-01-22T16:29:13.795Z,11.25
2023-01-22T16:31:40.514Z,15.07
2023-01-22T16:34:11.827Z,12.32
2023-01-22T16:36:39.669Z,12.63
2023-01-22T16:39:07.119Z,10.10
2023-01-22T16:41:36.696Z,13.25
2023-01-22T16:44:11.635Z,12.52
2023-01-22T16:46:43.332Z,10.23
2023-01-22T16:49:19.153Z,14.82
2023-01-22T16:51:48.374Z,12.00
2023-01-22T16:54:28.769Z,12.52
2023-01-22T16:56:59.790Z,12.95
2023-01-22T16:59:27.203Z,16.77
2023-01-22T17:01:55.265Z,12.25
2023-01-22T17:04:22.032Z,13.02
2023-01-22T17:06:51.333Z,14.88
2023-01-22T17:09:24.005Z,11.65
2023-01-22T17:11:56.425Z,12.73
2023-01-22T17:16:51.489Z,12.85
2023-01-22T17:19:19.719Z,12.55
2023-01-22T17:21:49.824Z,12.35
2023-01-22T17:24:16.516Z,13.25
2023-01-22T17:26:43.238Z,14.50
2023-01-22T17:29:10.388Z,15.57
2023-01-22T17:31:37.875Z,13.93
2023-01-22T17:34:08.515Z,14.15
2023-01-22T17:36:35.317Z,12.93
2023-01-22T17:39:03.370Z,13.48
2023-01-22T17:41:30.494Z,14.30
2023-01-22T17:43:58.689Z,12.85
2023-01-22T17:46:32.012Z,17.35
2023-01-22T17:49:01.124Z,12.52
2023-01-22T17:51:29.340Z,12.38
2023-01-22T17:53:57.816Z,12.93
2023-01-22T17:56:31.871Z,12.63
2023-01-22T17:59:00.868Z,15.25
2023-01-22T18:01:30.270Z,13.52
2023-01-22T18:03:58.700Z,12.93
2023-01-22T18:06:26.050Z,13.77
2023-01-22T18:08:52.706Z,14.73
2023-01-22T18:11:21.649Z,12.57
2023-01-22T18:13:48.515Z,11.73
2023-01-22T18:16:18.400Z,12.60
2023-01-22T18:18:45.389Z,15.40
2023-01-22T18:21:14.750Z,14.25
2023-01-22T18:23:41.349Z,13.13
2023-01-22T18:26:08.457Z,12.05
2023-01-22T18:28:35.191Z,13.43
2023-01-22T18:31:16.666Z,14.38
2023-01-22T18:33:46.102Z,13.23
2023-01-22T18:36:14.550Z,14.73
2023-01-22T18:38:41.487Z,15.05
2023-01-22T18:41:11.168Z,16.17
2023-01-22T18:43:38.440Z,14.43
2023-01-22T18:46:07.232Z,17.08
2023-01-22T18:48:34.094Z,15.07
2023-01-22T18:51:01.288Z,12.60
2023-01-22T18:53:29.666Z,13.90
2023-01-22T18:56:05.102Z,13.45
2023-01-22T18:58:34.118Z,13.90
2023-01-22T19:01:17.312Z,18.98
2023-01-22T19:03:50.482Z,14.18
2023-01-22T19:06:20.293Z,14.55
2023-01-22T19:08:48.227Z,15.68
2023-01-22T19:11:16.075Z,17.58
2023-01-22T19:13:44.985Z,14.88
2023-01-22T19:16:14.030Z,14.00
2023-01-22T19:18:46.663Z,13.32
2023-01-22T19:21:18.970Z,15.70
2023-01-22T19:23:47.978Z,14.68
2023-01-22T19:26:23.477Z,17.77
2023-01-22T19:28:53.495Z,13.63
2023-01-22T19:31:26.355Z,14.45
2023-01-22T19:33:54.725Z,13.05
2023-01-22T19:36:23.044Z,12.55
2023-01-22T19:38:50.239Z,16.52
2023-01-22T19:41:17.752Z,14.57
2023-01-22T19:43:44.455Z,15.25
2023-01-22T19:46:12.953Z,15.10
2023-01-22T19:48:40.337Z,19.13
2023-01-22T19:51:10.672Z,15.77
2023-01-22T19:53:37.788Z,15.25
2023-01-22T19:56:14.053Z,13.43
2023-01-22T19:58:40.656Z,13.77
2023-01-22T20:01:12.253Z,14.40
2023-01-22T20:03:38.873Z,13.40
2023-01-22T20:06:07.090Z,14.40
2023-01-22T20:08:36.386Z,13.80
2023-01-22T20:11:04.534Z,14.88
2023-01-22T20:13:31.259Z,15.07
2023-01-22T20:15:59.289Z,11.93
2023-01-22T20:18:25.990Z,16.23
2023-01-22T20:20:57.238Z,12.80
2023-01-22T20:23:24.301Z,13.18
2023-01-22T20:25:51.072Z,12.15
2023-01-22T20:28:18.787Z,11.60
2023-01-22T20:30:55.763Z,15.05
2023-01-22T20:33:22.421Z,15.63
2023-01-22T20:35:49.017Z,13.70
2023-01-22T20:38:15.972Z,13.82
2023-01-22T20:40:46.083Z,13.60
2023-01-22T20:43:14.112Z,13.57
2023-01-22T20:45:40.859Z,13.40
2023-01-22T20:48:07.765Z,14.27
2023-01-22T20:50:34.376Z,13.05
2023-01-22T20:53:02.138Z,12.45
2023-01-22T20:55:28.805Z,13.70
2023-01-22T20:57:55.433Z,13.48
2023-01-22T21:00:22.124Z,11.93
2023-01-22T21:02:50.583Z,11.70
2023-01-22T21:05:17.566Z,10.45
2023-01-22T21:07:44.419Z,13.93
2023-01-22T21:10:11.496Z,12.85
2023-01-22T21:12:41.013Z,13.57
2023-01-22T21:15:08.590Z,11.57
2023-01-22T21:17:35.903Z,14.98
2023-01-22T21:20:04.516Z,11.73
2023-01-22T21:22:31.132Z,13.23
2023-01-22T21:24:57.765Z,13.60
2023-01-22T21:27:24.448Z,11.05
2023-01-22T21:29:51.875Z,13.05
2023-01-22T21:32:19.221Z,9.88
2023-01-22T21:34:45.971Z,11.30
2023-01-22T21:37:12.661Z,12.60
2023-01-22T21:39:44.964Z,11.85
2023-01-22T21:45:16.155Z,11.88
2023-01-22T21:47:42.764Z,11.68
2023-01-22T21:50:10.182Z,14.63
2023-01-22T21:52:36.810Z,13.35
2023-01-22T21:55:03.769Z,10.15
2023-01-22T21:57:30.407Z,12.52
2023-01-22T21:59:57.029Z,10.43
2023-01-22T22:02:23.843Z,10.63
2023-01-22T22:04:50.564Z,11.82
2023-01-22T22:07:18.182Z,11.32
2023-01-22T22:09:45.013Z,11.57
2023-01-22T22:12:11.782Z,12.18
2023-01-22T22:14:38.531Z,13.13
2023-01-22T22:17:05.257Z,11.35
2023-01-22T22:19:32.110Z,14.07
2023-01-22T22:21:58.923Z,13.65
2023-01-22T22:24:25.993Z,12.75
2023-01-22T22:26:52.670Z,12.93
2023-01-22T22:29:19.772Z,13.27
2023-01-22T22:31:46.495Z,12.93
2023-01-22T22:34:13.147Z,12.35
2023-01-22T22:36:40.151Z,11.60
2023-01-22T22:39:07.240Z,11.32
2023-01-22T22:41:37.073Z,12.98
2023-01-22T22:44:04.759Z,13.95
2023-01-22T22:46:34.336Z,13.18
2023-01-22T22:49:02.426Z,13.07
2023-01-22T22:51:40.066Z,13.70
2023-01-22T22:54:18.153Z,11.63
2023-01-22T22:56:46.142Z,12.98
2023-01-22T22:59:14.123Z,12.13
2023-01-22T23:01:40.832Z,13.90
2023-01-22T23:04:08.803Z,12.80
2023-01-22T23:06:36.227Z,12.48
2023-01-22T23:09:11.154Z,11.13
2023-01-22T23:11:38.388Z,12.85
2023-01-22T23:14:06.167Z,13.00
2023-01-22T23:16:36.615Z,13.57
2023-01-22T23:19:06.400Z,12.30
2023-01-22T23:21:35.272Z,14.60
2023-01-22T23:24:02.759Z,13.68
2023-01-22T23:26:30.438Z,15.60
2023-01-22T23:29:00.613Z,13.55
2023-01-22T23:31:29.349Z,11.57
2023-01-22T23:33:56.561Z,12.57
2023-01-22T23:36:26.009Z,15.60
2023-01-22T23:38:53.505Z,13.10
2023-01-22T23:41:21.115Z,12.40
2023-01-22T23:43:47.766Z,14.45
2023-01-22T23:46:18.273Z,13.82
2023-01-22T23:48:45.345Z,11.70
2023-01-22T23:51:14.488Z,12.27
2023-01-22T23:53:43.734Z,12.50
2023-01-22T23:56:12.186Z,12.55
2023-01-22T23:58:39.717Z,12.95
